sensor_id;sensor_type;location;lat;lon;timestamp;pressure;altitude;pressure_sealevel;temperature;humidity
18813;BME280;9534;51.140;6.296;2023-08-07T00:00:36;102988.03;;;12.71;100.00
18813;BME280;9534;51.140;6.296;2023-08-07T00:04:39;102986.63;;;12.67;100.00
18813;BME280;9534;51.140;6.296;2023-08-07T00:08:43;102971.53;;;12.71;100.00
18813;BME280;9534;51.140;6.296;2023-08-07T00:12:48;102976.50;;;12.67;100.00
18813;BME280;9534;51.140;6.296;2023-08-07T00:16:51;102961.72;;;12.68;100.00
18813;BME280;9534;51.140;6.296;2023-08-07T00:20:54;102963.78;;;12.66;100.00
18813;BME280;9534;51.140;6.296;2023-08-07T00:24:58;102961.03;;;12.66;100.00
18813;BME280;9534;51.140;6.296;2023-08-07T00:29:01;102960.53;;;12.63;100.00
18813;BME280;9534;51.140;6.296;2023-08-07T00:33:05;102952.94;;;12.57;100.00
18813;BME280;9534;51.140;6.296;2023-08-07T00:37:08;102948.16;;;12.59;100.00
18813;BME280;9534;51.140;6.296;2023-08-07T00:41:12;102956.38;;;12.59;100.00
18813;BME280;9534;51.140;6.296;2023-08-07T00:45:16;102950.88;;;12.59;100.00
18813;BME280;9534;51.140;6.296;2023-08-07T00:49:20;102945.41;;;12.59;100.00
18813;BME280;9534;51.140;6.296;2023-08-07T00:53:23;102950.53;;;12.54;100.00
18813;BME280;9534;51.140;6.296;2023-08-07T00:57:28;102945.72;;;12.56;100.00
18813;BME280;9534;51.140;6.296;2023-08-07T01:01:31;102952.94;;;12.57;100.00
18813;BME280;9534;51.140;6.296;2023-08-07T01:05:34;102948.81;;;12.53;100.00
18813;BME280;9534;51.140;6.296;2023-08-07T01:09:37;102961.88;;;12.59;100.00
18813;BME280;9534;51.140;6.296;2023-08-07T01:13:42;102965.31;;;12.61;100.00
18813;BME280;9534;51.140;6.296;2023-08-07T01:17:48;102973.38;;;12.62;100.00
18813;BME280;9534;51.140;6.296;2023-08-07T01:22:04;102979.56;;;12.64;100.00
18813;BME280;9534;51.140;6.296;2023-08-07T01:26:08;102975.78;;;12.65;100.00
18813;BME280;9534;51.140;6.296;2023-08-07T01:30:14;102977.69;;;12.65;100.00
18813;BME280;9534;51.140;6.296;2023-08-07T01:34:21;102972.53;;;12.62;100.00
18813;BME280;9534;51.140;6.296;2023-08-07T01:38:27;102978.38;;;12.59;100.00
18813;BME280;9534;51.140;6.296;2023-08-07T01:42:31;102972.53;;;12.62;100.00
18813;BME280;9534;51.140;6.296;2023-08-07T01:46:35;102972.53;;;12.62;100.00
18813;BME280;9534;51.140;6.296;2023-08-07T01:50:38;102985.25;;;12.63;100.00
18813;BME280;9534;51.140;6.296;2023-08-07T01:54:44;102986.25;;;12.54;100.00
18813;BME280;9534;51.140;6.296;2023-08-07T01:58:46;102982.59;;;12.45;100.00
18813;BME280;9534;51.140;6.296;2023-08-07T02:02:49;102985.19;;;12.47;100.00
18813;BME280;9534;51.140;6.296;2023-08-07T02:06:52;102997.22;;;12.54;100.00
18813;BME280;9534;51.140;6.296;2023-08-07T02:10:59;102984.53;;;12.53;100.00
18813;BME280;9534;51.140;6.296;2023-08-07T02:15:03;102980.19;;;12.50;100.00
18813;BME280;9534;51.140;6.296;2023-08-07T02:19:07;102986.94;;;12.56;100.00
18813;BME280;9534;51.140;6.296;2023-08-07T02:23:11;102997.75;;;12.57;100.00
18813;BME280;9534;51.140;6.296;2023-08-07T02:27:15;103001.50;;;12.56;100.00
18813;BME280;9534;51.140;6.296;2023-08-07T02:31:18;103004.63;;;12.61;100.00
18813;BME280;9534;51.140;6.296;2023-08-07T02:35:21;103017.00;;;12.65;100.00
18813;BME280;9534;51.140;6.296;2023-08-07T02:39:25;103036.41;;;12.64;100.00
18813;BME280;9534;51.140;6.296;2023-08-07T02:43:29;103042.75;;;12.64;100.00
18813;BME280;9534;51.140;6.296;2023-08-07T02:47:34;103043.97;;;12.62;100.00
18813;BME280;9534;51.140;6.296;2023-08-07T02:51:38;103038.44;;;12.54;100.00
18813;BME280;9534;51.140;6.296;2023-08-07T02:55:42;103037.88;;;12.50;100.00
18813;BME280;9534;51.140;6.296;2023-08-07T02:59:46;103027.91;;;12.49;100.00
18813;BME280;9534;51.140;6.296;2023-08-07T03:03:49;103043.38;;;12.50;100.00
18813;BME280;9534;51.140;6.296;2023-08-07T03:07:52;103039.78;;;12.50;100.00
18813;BME280;9534;51.140;6.296;2023-08-07T03:11:55;103047.00;;;12.51;100.00
18813;BME280;9534;51.140;6.296;2023-08-07T03:16:06;103047.31;;;12.48;100.00
18813;BME280;9534;51.140;6.296;2023-08-07T03:20:10;103036.34;;;12.48;100.00
18813;BME280;9534;51.140;6.296;2023-08-07T03:24:13;103030.31;;;12.44;100.00
18813;BME280;9534;51.140;6.296;2023-08-07T03:28:16;103031.31;;;12.43;100.00
18813;BME280;9534;51.140;6.296;2023-08-07T03:32:21;103033.56;;;12.40;100.00
18813;BME280;9534;51.140;6.296;2023-08-07T03:36:24;103038.19;;;12.39;100.00
18813;BME280;9534;51.140;6.296;2023-08-07T03:40:27;103029.41;;;12.36;100.00
18813;BME280;9534;51.140;6.296;2023-08-07T03:44:31;103031.47;;;12.34;100.00
18813;BME280;9534;51.140;6.296;2023-08-07T03:48:36;103013.25;;;12.33;100.00
18813;BME280;9534;51.140;6.296;2023-08-07T03:52:39;103017.41;;;12.37;100.00
18813;BME280;9534;51.140;6.296;2023-08-07T03:56:42;103018.28;;;12.37;100.00
18813;BME280;9534;51.140;6.296;2023-08-07T04:00:45;103009.00;;;12.38;100.00
18813;BME280;9534;51.140;6.296;2023-08-07T04:04:50;103003.19;;;12.41;100.00
18813;BME280;9534;51.140;6.296;2023-08-07T04:08:53;103015.88;;;12.42;100.00
18813;BME280;9534;51.140;6.296;2023-08-07T04:12:56;103010.38;;;12.42;100.00
18813;BME280;9534;51.140;6.296;2023-08-07T04:16:59;103018.16;;;12.47;100.00
18813;BME280;9534;51.140;6.296;2023-08-07T04:21:03;103025.34;;;12.48;100.00
18813;BME280;9534;51.140;6.296;2023-08-07T04:25:07;103035.78;;;12.44;100.00
18813;BME280;9534;51.140;6.296;2023-08-07T04:29:10;103027.22;;;12.39;100.00
18813;BME280;9534;51.140;6.296;2023-08-07T04:33:13;103020.66;;;12.33;100.00
18813;BME280;9534;51.140;6.296;2023-08-07T04:37:18;103005.69;;;12.27;100.00
18813;BME280;9534;51.140;6.296;2023-08-07T04:41:21;103007.41;;;12.28;100.00
18813;BME280;9534;51.140;6.296;2023-08-07T04:45:24;103010.16;;;12.28;100.00
18813;BME280;9534;51.140;6.296;2023-08-07T04:49:27;103008.41;;;12.27;100.00
18813;BME280;9534;51.140;6.296;2023-08-07T04:53:31;103012.56;;;12.31;100.00
18813;BME280;9534;51.140;6.296;2023-08-07T04:57:34;103018.06;;;12.31;100.00
18813;BME280;9534;51.140;6.296;2023-08-07T05:01:37;103030.13;;;12.38;100.00
18813;BME280;9534;51.140;6.296;2023-08-07T05:05:41;103029.09;;;12.39;100.00
18813;BME280;9534;51.140;6.296;2023-08-07T05:09:45;103044.91;;;12.45;100.00
18813;BME280;9534;51.140;6.296;2023-08-07T05:13:48;103065.19;;;12.52;100.00
18813;BME280;9534;51.140;6.296;2023-08-07T05:17:51;103072.94;;;12.56;100.00
18813;BME280;9534;51.140;6.296;2023-08-07T05:21:55;103091.16;;;12.57;100.00
18813;BME280;9534;51.140;6.296;2023-08-07T05:25:59;103102.34;;;12.64;100.00
18813;BME280;9534;51.140;6.296;2023-08-07T05:30:04;103117.50;;;12.68;100.00
18813;BME280;9534;51.140;6.296;2023-08-07T05:34:07;103133.28;;;12.66;100.00
18813;BME280;9534;51.140;6.296;2023-08-07T05:38:10;103164.19;;;12.68;100.00
18813;BME280;9534;51.140;6.296;2023-08-07T05:42:14;103177.94;;;12.68;100.00
18813;BME280;9534;51.140;6.296;2023-08-07T05:46:17;103197.19;;;12.68;100.00
18813;BME280;9534;51.140;6.296;2023-08-07T05:50:20;103216.47;;;12.76;100.00
18813;BME280;9534;51.140;6.296;2023-08-07T05:54:23;103232.97;;;12.76;100.00
18813;BME280;9534;51.140;6.296;2023-08-07T05:58:28;103238.44;;;12.76;100.00
18813;BME280;9534;51.140;6.296;2023-08-07T06:02:31;103253.22;;;12.75;100.00
18813;BME280;9534;51.140;6.296;2023-08-07T06:06:34;103285.56;;;12.81;100.00
18813;BME280;9534;51.140;6.296;2023-08-07T06:10:37;103291.00;;;12.73;100.00
18813;BME280;9534;51.140;6.296;2023-08-07T06:14:42;103277.88;;;12.67;100.00
18813;BME280;9534;51.140;6.296;2023-08-07T06:18:45;103274.91;;;12.60;100.00
18813;BME280;9534;51.140;6.296;2023-08-07T06:22:48;103281.91;;;12.55;100.00
18813;BME280;9534;51.140;6.296;2023-08-07T06:26:51;103238.09;;;12.53;100.00
18813;BME280;9534;51.140;6.296;2023-08-07T06:31:01;103216.59;;;12.49;100.00
18813;BME280;9534;51.140;6.296;2023-08-07T06:35:04;103197.69;;;12.46;100.00
18813;BME280;9534;51.140;6.296;2023-08-07T06:39:08;103193.06;;;12.46;100.00
18813;BME280;9534;51.140;6.296;2023-08-07T06:43:11;103192.53;;;12.43;100.00
18813;BME280;9534;51.140;6.296;2023-08-07T06:47:15;103183.41;;;12.42;100.00
18813;BME280;9534;51.140;6.296;2023-08-07T06:51:18;103175.34;;;12.41;100.00
18813;BME280;9534;51.140;6.296;2023-08-07T06:55:22;103172.59;;;12.41;100.00
18813;BME280;9534;51.140;6.296;2023-08-07T06:59:25;103173.38;;;12.51;100.00
18813;BME280;9534;51.140;6.296;2023-08-07T07:03:29;103179.22;;;12.56;100.00
18813;BME280;9534;51.140;6.296;2023-08-07T07:07:32;103184.22;;;12.60;100.00
18813;BME280;9534;51.140;6.296;2023-08-07T07:11:35;103194.06;;;12.63;100.00
18813;BME280;9534;51.140;6.296;2023-08-07T07:15:39;103179.50;;;12.70;100.00
18813;BME280;9534;51.140;6.296;2023-08-07T07:19:44;103200.19;;;12.82;100.00
18813;BME280;9534;51.140;6.296;2023-08-07T07:23:47;103221.72;;;12.95;100.00
18813;BME280;9534;51.140;6.296;2023-08-07T07:27:50;103260.34;;;13.11;100.00
18813;BME280;9534;51.140;6.296;2023-08-07T07:31:53;103287.59;;;13.30;100.00
18813;BME280;9534;51.140;6.296;2023-08-07T07:35:58;103330.50;;;13.48;100.00
18813;BME280;9534;51.140;6.296;2023-08-07T07:40:03;103409.06;;;13.68;100.00
18813;BME280;9534;51.140;6.296;2023-08-07T07:44:06;103521.16;;;13.83;100.00
18813;BME280;9534;51.140;6.296;2023-08-07T07:48:09;103664.84;;;14.04;100.00
18813;BME280;9534;51.140;6.296;2023-08-07T07:52:14;103800.41;;;14.25;100.00
18813;BME280;9534;51.140;6.296;2023-08-07T07:56:17;103933.16;;;14.38;100.00
18813;BME280;9534;51.140;6.296;2023-08-07T08:00:20;103958.97;;;14.37;100.00
18813;BME280;9534;51.140;6.296;2023-08-07T08:04:25;103943.25;;;14.47;100.00
18813;BME280;9534;51.140;6.296;2023-08-07T08:08:29;103915.69;;;14.47;100.00
18813;BME280;9534;51.140;6.296;2023-08-07T08:12:32;103876.78;;;14.50;100.00
18813;BME280;9534;51.140;6.296;2023-08-07T08:16:36;103848.78;;;14.80;100.00
18813;BME280;9534;51.140;6.296;2023-08-07T08:20:39;103826.63;;;15.15;100.00
18813;BME280;9534;51.140;6.296;2023-08-07T08:24:43;103669.03;;;15.18;100.00
18813;BME280;9534;51.140;6.296;2023-08-07T08:28:46;103559.94;;;14.90;100.00
18813;BME280;9534;51.140;6.296;2023-08-07T08:32:49;103534.06;;;14.83;100.00
18813;BME280;9534;51.140;6.296;2023-08-07T08:36:52;103686.53;;;14.68;100.00
18813;BME280;9534;51.140;6.296;2023-08-07T08:40:57;103712.44;;;14.49;100.00
18813;BME280;9534;51.140;6.296;2023-08-07T08:45:00;103814.66;;;14.38;100.00
18813;BME280;9534;51.140;6.296;2023-08-07T08:49:05;103820.63;;;14.34;100.00
18813;BME280;9534;51.140;6.296;2023-08-07T08:53:10;103800.94;;;14.46;100.00
18813;BME280;9534;51.140;6.296;2023-08-07T08:57:15;103779.72;;;14.64;100.00
18813;BME280;9534;51.140;6.296;2023-08-07T09:01:18;103663.34;;;14.86;100.00
18813;BME280;9534;51.140;6.296;2023-08-07T09:05:24;103592.56;;;14.61;100.00
18813;BME280;9534;51.140;6.296;2023-08-07T09:09:27;103366.38;;;15.02;100.00
18813;BME280;9534;51.140;6.296;2023-08-07T09:13:32;102923.69;;;15.66;100.00
18813;BME280;9534;51.140;6.296;2023-08-07T09:17:38;102169.16;;;16.12;100.00
18813;BME280;9534;51.140;6.296;2023-08-07T09:21:42;101252.94;;;16.84;100.00
18813;BME280;9534;51.140;6.296;2023-08-07T09:25:45;100964.47;;;17.57;100.00
18813;BME280;9534;51.140;6.296;2023-08-07T09:29:49;100857.56;;;17.68;100.00
18813;BME280;9534;51.140;6.296;2023-08-07T09:33:52;100758.53;;;18.51;100.00
18813;BME280;9534;51.140;6.296;2023-08-07T09:37:56;100700.69;;;18.59;100.00
18813;BME280;9534;51.140;6.296;2023-08-07T09:41:59;100683.91;;;17.63;100.00
18813;BME280;9534;51.140;6.296;2023-08-07T09:46:04;100674.81;;;18.27;100.00
18813;BME280;9534;51.140;6.296;2023-08-07T09:50:08;100604.41;;;18.02;100.00
18813;BME280;9534;51.140;6.296;2023-08-07T09:54:17;100588.31;;;19.14;100.00
18813;BME280;9534;51.140;6.296;2023-08-07T09:58:20;100593.56;;;18.48;100.00
18813;BME280;9534;51.140;6.296;2023-08-07T10:02:25;100593.03;;;18.77;100.00
18813;BME280;9534;51.140;6.296;2023-08-07T10:06:28;100583.00;;;18.71;100.00
18813;BME280;9534;51.140;6.296;2023-08-07T10:10:32;100604.91;;;17.99;100.00
18813;BME280;9534;51.140;6.296;2023-08-07T10:14:36;100601.78;;;17.31;100.00
18813;BME280;9534;51.140;6.296;2023-08-07T10:18:41;100593.34;;;17.59;100.00
18813;BME280;9534;51.140;6.296;2023-08-07T10:22:44;100612.19;;;18.05;100.00
18813;BME280;9534;51.140;6.296;2023-08-07T10:26:47;100604.75;;;17.84;100.00
18813;BME280;9534;51.140;6.296;2023-08-07T10:30:51;100615.97;;;19.04;100.00
18813;BME280;9534;51.140;6.296;2023-08-07T10:34:56;100626.97;;;17.89;100.00
18813;BME280;9534;51.140;6.296;2023-08-07T10:39:05;100616.16;;;17.66;100.00
18813;BME280;9534;51.140;6.296;2023-08-07T10:43:27;100608.00;;;18.76;100.00
18813;BME280;9534;51.140;6.296;2023-08-07T10:47:34;100612.53;;;19.65;100.00
18813;BME280;9534;51.140;6.296;2023-08-07T10:51:38;100613.84;;;18.27;100.00
18813;BME280;9534;51.140;6.296;2023-08-07T10:55:45;100599.47;;;19.19;100.00
18813;BME280;9534;51.140;6.296;2023-08-07T10:59:51;100597.91;;;19.33;100.00
18813;BME280;9534;51.140;6.296;2023-08-07T11:03:56;100616.31;;;18.50;100.00
18813;BME280;9534;51.140;6.296;2023-08-07T11:08:00;100616.47;;;18.96;100.00
18813;BME280;9534;51.140;6.296;2023-08-07T11:12:04;100591.00;;;18.68;100.00
18813;BME280;9534;51.140;6.296;2023-08-07T11:16:07;100627.41;;;19.44;100.00
18813;BME280;9534;51.140;6.296;2023-08-07T11:20:11;100621.72;;;18.62;100.00
18813;BME280;9534;51.140;6.296;2023-08-07T11:24:15;100616.59;;;19.11;100.00
18813;BME280;9534;51.140;6.296;2023-08-07T11:28:21;100627.59;;;19.79;100.00
18813;BME280;9534;51.140;6.296;2023-08-07T11:32:26;100604.97;;;19.14;100.00
18813;BME280;9534;51.140;6.296;2023-08-07T11:36:30;100622.03;;;18.65;100.00
18813;BME280;9534;51.140;6.296;2023-08-07T11:40:34;100609.91;;;19.95;100.00
18813;BME280;9534;51.140;6.296;2023-08-07T11:44:37;100620.25;;;20.09;100.00
18813;BME280;9534;51.140;6.296;2023-08-07T11:48:41;100589.78;;;19.63;100.00
18813;BME280;9534;51.140;6.296;2023-08-07T11:52:44;100602.09;;;19.87;100.00
18813;BME280;9534;51.140;6.296;2023-08-07T11:56:49;100604.13;;;19.50;100.00
18813;BME280;9534;51.140;6.296;2023-08-07T12:00:52;100622.88;;;20.56;100.00
18813;BME280;9534;51.140;6.296;2023-08-07T12:04:58;100629.03;;;18.72;100.00
18813;BME280;9534;51.140;6.296;2023-08-07T12:09:02;100623.19;;;18.43;100.00
18813;BME280;9534;51.140;6.296;2023-08-07T12:13:09;100618.03;;;19.14;100.00
18813;BME280;9534;51.140;6.296;2023-08-07T12:17:12;100618.34;;;19.59;100.00
18813;BME280;9534;51.140;6.296;2023-08-07T12:21:15;100632.41;;;21.19;100.00
18813;BME280;9534;51.140;6.296;2023-08-07T12:25:18;100634.91;;;21.01;100.00
18813;BME280;9534;51.140;6.296;2023-08-07T12:29:23;100633.78;;;21.37;100.00
18813;BME280;9534;51.140;6.296;2023-08-07T12:33:30;100630.66;;;21.78;100.00
18813;BME280;9534;51.140;6.296;2023-08-07T12:37:33;100628.78;;;21.34;100.00
18813;BME280;9534;51.140;6.296;2023-08-07T12:41:36;100644.06;;;22.40;100.00
18813;BME280;9534;51.140;6.296;2023-08-07T12:45:43;100625.66;;;20.61;100.00
18813;BME280;9534;51.140;6.296;2023-08-07T12:49:49;100595.56;;;20.18;100.00
18813;BME280;9534;51.140;6.296;2023-08-07T12:53:52;100621.53;;;19.87;100.00
18813;BME280;9534;51.140;6.296;2023-08-07T12:57:55;100630.41;;;20.65;100.00
18813;BME280;9534;51.140;6.296;2023-08-07T13:02:00;100642.44;;;21.25;100.00
18813;BME280;9534;51.140;6.296;2023-08-07T13:06:03;100645.16;;;21.45;100.00
18813;BME280;9534;51.140;6.296;2023-08-07T13:10:11;100647.44;;;20.94;100.00
18813;BME280;9534;51.140;6.296;2023-08-07T13:14:14;100643.25;;;20.96;100.00
18813;BME280;9534;51.140;6.296;2023-08-07T13:18:18;100637.91;;;20.60;100.00
18813;BME280;9534;51.140;6.296;2023-08-07T13:22:22;100613.84;;;19.16;100.00
18813;BME280;9534;51.140;6.296;2023-08-07T13:26:24;100645.22;;;18.85;100.00
18813;BME280;9534;51.140;6.296;2023-08-07T13:30:28;100640.56;;;17.69;100.00
18813;BME280;9534;51.140;6.296;2023-08-07T13:34:38;100648.41;;;17.23;100.00
18813;BME280;9534;51.140;6.296;2023-08-07T13:38:41;100650.91;;;18.00;100.00
18813;BME280;9534;51.140;6.296;2023-08-07T13:42:47;100640.69;;;19.37;100.00
18813;BME280;9534;51.140;6.296;2023-08-07T13:46:50;100647.69;;;19.96;100.00
18813;BME280;9534;51.140;6.296;2023-08-07T13:50:54;100648.19;;;20.49;100.00
18813;BME280;9534;51.140;6.296;2023-08-07T13:54:57;100657.38;;;21.84;100.00
18813;BME280;9534;51.140;6.296;2023-08-07T13:59:00;100647.69;;;21.47;100.00
18813;BME280;9534;51.140;6.296;2023-08-07T14:03:03;100652.16;;;21.03;100.00
18813;BME280;9534;51.140;6.296;2023-08-07T14:07:08;100642.59;;;20.39;100.00
18813;BME280;9534;51.140;6.296;2023-08-07T14:11:11;100651.63;;;20.05;100.00
18813;BME280;9534;51.140;6.296;2023-08-07T14:15:16;100635.22;;;19.98;100.00
18813;BME280;9534;51.140;6.296;2023-08-07T14:19:19;100658.69;;;19.03;100.00
18813;BME280;9534;51.140;6.296;2023-08-07T14:23:23;100652.97;;;18.83;100.00
18813;BME280;9534;51.140;6.296;2023-08-07T14:27:26;100661.28;;;18.83;100.00
18813;BME280;9534;51.140;6.296;2023-08-07T14:31:29;100658.00;;;19.18;100.00
18813;BME280;9534;51.140;6.296;2023-08-07T14:35:33;100647.13;;;18.80;100.00
18813;BME280;9534;51.140;6.296;2023-08-07T14:39:37;100657.28;;;18.69;100.00
18813;BME280;9534;51.140;6.296;2023-08-07T14:43:40;100663.19;;;19.09;100.00
18813;BME280;9534;51.140;6.296;2023-08-07T14:47:43;100654.91;;;19.14;100.00
18813;BME280;9534;51.140;6.296;2023-08-07T14:51:46;100669.59;;;20.49;100.00
18813;BME280;9534;51.140;6.296;2023-08-07T14:55:51;100657.72;;;20.07;100.00
18813;BME280;9534;51.140;6.296;2023-08-07T14:59:54;100668.59;;;20.95;100.00
18813;BME280;9534;51.140;6.296;2023-08-07T15:03:58;100666.47;;;19.79;100.00
18813;BME280;9534;51.140;6.296;2023-08-07T15:08:01;100664.53;;;20.26;100.00
18813;BME280;9534;51.140;6.296;2023-08-07T15:12:06;100664.78;;;20.29;100.00
18813;BME280;9534;51.140;6.296;2023-08-07T15:16:09;100674.19;;;20.18;100.00
18813;BME280;9534;51.140;6.296;2023-08-07T15:20:12;100670.69;;;19.40;100.00
18813;BME280;9534;51.140;6.296;2023-08-07T15:24:15;100669.00;;;19.39;100.00
18813;BME280;9534;51.140;6.296;2023-08-07T15:28:20;100670.66;;;19.77;100.00
18813;BME280;9534;51.140;6.296;2023-08-07T15:32:23;100674.50;;;20.22;100.00
18813;BME280;9534;51.140;6.296;2023-08-07T15:36:26;100674.16;;;21.05;100.00
18813;BME280;9534;51.140;6.296;2023-08-07T15:40:29;100680.63;;;22.81;100.00
18813;BME280;9534;51.140;6.296;2023-08-07T15:44:33;100678.34;;;21.37;100.00
18813;BME280;9534;51.140;6.296;2023-08-07T15:48:37;100674.16;;;20.95;100.00
18813;BME280;9534;51.140;6.296;2023-08-07T15:52:40;100671.84;;;20.67;100.00
18813;BME280;9534;51.140;6.296;2023-08-07T15:56:43;100671.78;;;19.39;100.00
18813;BME280;9534;51.140;6.296;2023-08-07T16:00:47;100664.69;;;19.22;100.00
18813;BME280;9534;51.140;6.296;2023-08-07T16:04:51;100669.91;;;19.96;100.00
18813;BME280;9534;51.140;6.296;2023-08-07T16:08:54;100666.13;;;20.12;100.00
18813;BME280;9534;51.140;6.296;2023-08-07T16:12:58;100664.16;;;19.25;100.00
18813;BME280;9534;51.140;6.296;2023-08-07T16:17:21;100664.41;;;19.23;100.00
18813;BME280;9534;51.140;6.296;2023-08-07T16:21:24;100668.91;;;19.66;100.00
18813;BME280;9534;51.140;6.296;2023-08-07T16:25:46;100663.06;;;19.26;100.00
18813;BME280;9534;51.140;6.296;2023-08-07T16:30:07;100666.38;;;20.10;100.00
18813;BME280;9534;51.140;6.296;2023-08-07T16:34:12;100661.06;;;19.21;100.00
18813;BME280;9534;51.140;6.296;2023-08-07T16:38:15;100667.50;;;18.95;100.00
18813;BME280;9534;51.140;6.296;2023-08-07T16:42:20;100659.66;;;18.87;100.00
18813;BME280;9534;51.140;6.296;2023-08-07T16:46:23;100663.59;;;19.59;100.00
18813;BME280;9534;51.140;6.296;2023-08-07T16:50:27;100662.31;;;19.35;100.00
18813;BME280;9534;51.140;6.296;2023-08-07T16:54:31;100667.63;;;18.79;100.00
18813;BME280;9534;51.140;6.296;2023-08-07T16:58:35;100662.16;;;18.58;100.00
18813;BME280;9534;51.140;6.296;2023-08-07T17:02:38;100655.19;;;18.34;100.00
18813;BME280;9534;51.140;6.296;2023-08-07T17:06:42;100659.00;;;18.28;100.00
18813;BME280;9534;51.140;6.296;2023-08-07T17:10:45;100658.66;;;18.19;100.00
18813;BME280;9534;51.140;6.296;2023-08-07T17:14:48;100666.44;;;18.22;100.00
18813;BME280;9534;51.140;6.296;2023-08-07T17:18:51;100652.00;;;19.31;100.00
18813;BME280;9534;51.140;6.296;2023-08-07T17:22:56;100654.25;;;19.34;100.00
18813;BME280;9534;51.140;6.296;2023-08-07T17:26:59;100654.25;;;20.36;100.00
18813;BME280;9534;51.140;6.296;2023-08-07T17:31:02;100653.78;;;18.79;100.00
18813;BME280;9534;51.140;6.296;2023-08-07T17:35:06;100657.09;;;18.50;100.00
18813;BME280;9534;51.140;6.296;2023-08-07T17:39:11;100655.34;;;19.01;100.00
18813;BME280;9534;51.140;6.296;2023-08-07T17:43:14;100655.06;;;18.98;100.00
18813;BME280;9534;51.140;6.296;2023-08-07T17:47:17;100647.72;;;19.18;100.00
18813;BME280;9534;51.140;6.296;2023-08-07T17:51:20;100638.13;;;19.77;100.00
18813;BME280;9534;51.140;6.296;2023-08-07T17:55:24;100642.66;;;19.42;100.00
18813;BME280;9534;51.140;6.296;2023-08-07T17:59:28;100646.03;;;20.00;100.00
18813;BME280;9534;51.140;6.296;2023-08-07T18:03:31;100642.06;;;19.86;100.00
18813;BME280;9534;51.140;6.296;2023-08-07T18:07:34;100655.50;;;19.53;100.00
18813;BME280;9534;51.140;6.296;2023-08-07T18:11:38;100658.03;;;18.91;100.00
18813;BME280;9534;51.140;6.296;2023-08-07T18:15:41;100647.59;;;19.03;100.00
18813;BME280;9534;51.140;6.296;2023-08-07T18:19:44;100650.53;;;18.87;100.00
18813;BME280;9534;51.140;6.296;2023-08-07T18:23:47;100657.09;;;18.50;100.00
18813;BME280;9534;51.140;6.296;2023-08-07T18:27:53;100651.41;;;18.66;100.00
18813;BME280;9534;51.140;6.296;2023-08-07T18:31:56;100654.00;;;18.25;100.00
18813;BME280;9534;51.140;6.296;2023-08-07T18:35:59;100650.53;;;18.13;100.00
18813;BME280;9534;51.140;6.296;2023-08-07T18:40:05;100651.25;;;17.82;100.00
18813;BME280;9534;51.140;6.296;2023-08-07T18:44:09;100652.06;;;17.28;100.00
18813;BME280;9534;51.140;6.296;2023-08-07T18:48:13;100655.28;;;17.20;100.00
18813;BME280;9534;51.140;6.296;2023-08-07T18:52:16;100658.91;;;17.04;100.00
18813;BME280;9534;51.140;6.296;2023-08-07T18:56:19;100665.00;;;16.73;100.00
18813;BME280;9534;51.140;6.296;2023-08-07T19:00:23;100676.34;;;16.60;100.00
18813;BME280;9534;51.140;6.296;2023-08-07T19:04:27;100680.00;;;16.49;100.00
18813;BME280;9534;51.140;6.296;2023-08-07T19:08:30;100687.75;;;16.36;100.00
18813;BME280;9534;51.140;6.296;2023-08-07T19:12:33;100683.25;;;16.18;100.00
18813;BME280;9534;51.140;6.296;2023-08-07T19:16:38;100690.72;;;16.07;100.00
18813;BME280;9534;51.140;6.296;2023-08-07T19:20:46;100700.00;;;15.89;100.00
18813;BME280;9534;51.140;6.296;2023-08-07T19:24:49;100712.84;;;15.84;100.00
18813;BME280;9534;51.140;6.296;2023-08-07T19:28:53;100720.69;;;15.75;100.00
18813;BME280;9534;51.140;6.296;2023-08-07T19:32:59;100731.34;;;15.72;100.00
18813;BME280;9534;51.140;6.296;2023-08-07T19:37:02;100728.22;;;15.57;100.00
18813;BME280;9534;51.140;6.296;2023-08-07T19:41:06;100742.25;;;15.44;100.00
18813;BME280;9534;51.140;6.296;2023-08-07T19:45:09;100749.41;;;15.33;100.00
18813;BME280;9534;51.140;6.296;2023-08-07T19:49:13;100751.56;;;15.31;100.00
18813;BME280;9534;51.140;6.296;2023-08-07T19:53:16;100760.56;;;15.27;100.00
18813;BME280;9534;51.140;6.296;2023-08-07T19:57:20;100766.91;;;15.27;100.00
18813;BME280;9534;51.140;6.296;2023-08-07T20:01:23;100771.00;;;15.25;100.00
18813;BME280;9534;51.140;6.296;2023-08-07T20:05:27;100780.56;;;15.22;100.00
18813;BME280;9534;51.140;6.296;2023-08-07T20:09:30;100803.22;;;15.13;100.00
18813;BME280;9534;51.140;6.296;2023-08-07T20:13:34;100813.34;;;15.01;100.00
18813;BME280;9534;51.140;6.296;2023-08-07T20:17:37;100821.72;;;14.94;100.00
18813;BME280;9534;51.140;6.296;2023-08-07T20:21:42;100840.50;;;14.86;100.00
18813;BME280;9534;51.140;6.296;2023-08-07T20:25:45;100882.06;;;14.84;100.00
18813;BME280;9534;51.140;6.296;2023-08-07T20:29:48;100898.22;;;14.81;100.00
18813;BME280;9534;51.140;6.296;2023-08-07T20:33:52;100885.34;;;14.75;100.00
18813;BME280;9534;51.140;6.296;2023-08-07T20:38:01;100876.63;;;14.78;100.00
18813;BME280;9534;51.140;6.296;2023-08-07T20:42:04;100858.25;;;14.72;100.00
18813;BME280;9534;51.140;6.296;2023-08-07T20:46:07;100867.75;;;14.76;100.00
18813;BME280;9534;51.140;6.296;2023-08-07T20:50:11;100870.16;;;14.73;100.00
18813;BME280;9534;51.140;6.296;2023-08-07T20:54:16;100867.75;;;14.76;100.00
18813;BME280;9534;51.140;6.296;2023-08-07T20:58:19;100857.94;;;14.80;100.00
18813;BME280;9534;51.140;6.296;2023-08-07T21:02:22;100844.50;;;14.72;100.00
18813;BME280;9534;51.140;6.296;2023-08-07T21:06:25;100858.06;;;14.56;100.00
18813;BME280;9534;51.140;6.296;2023-08-07T21:10:30;100879.88;;;14.39;100.00
18813;BME280;9534;51.140;6.296;2023-08-07T21:14:33;100929.72;;;14.31;100.00